createdAt,value
2023-04-03T00:00:43.168Z,75.59
2023-04-03T00:03:12.663Z,75.88
2023-04-03T00:05:40.556Z,75.15
2023-04-03T00:08:10.460Z,76.68
2023-04-03T00:10:39.593Z,75.94
2023-04-03T00:13:08.849Z,75.44
2023-04-03T00:15:38.584Z,75.94
2023-04-03T00:18:06.940Z,75.49
2023-04-03T00:20:36.805Z,75.01
2023-04-03T00:23:05.358Z,76.04
2023-04-03T00:25:33.398Z,75.58
2023-04-03T00:28:01.582Z,75.09
2023-04-03T00:30:29.555Z,75.56
2023-04-03T00:32:57.615Z,75.94
2023-04-03T00:35:26.774Z,75.57
2023-04-03T00:37:57.485Z,75.65
2023-04-03T00:40:27.648Z,75.82
2023-04-03T00:42:59.704Z,75.81
2023-04-03T00:45:41.690Z,76.32
2023-04-03T00:48:13.635Z,75.18
2023-04-03T00:50:44.255Z,75.43
2023-04-03T00:53:16.382Z,75.78
2023-04-03T00:55:45.837Z,75.65
2023-04-03T00:58:14.628Z,75.87
2023-04-03T01:00:46.975Z,75.22
2023-04-03T01:03:15.004Z,76.03
2023-04-03T01:05:43.211Z,76.10
2023-04-03T01:08:11.459Z,76.18
2023-04-03T01:10:40.869Z,75.40
2023-04-03T01:13:21.943Z,75.91
2023-04-03T01:15:50.525Z,75.90
2023-04-03T01:18:18.713Z,75.85
2023-04-03T01:21:19.400Z,75.74
2023-04-03T01:23:59.632Z,76.18
2023-04-03T01:26:29.961Z,75.42
2023-04-03T01:32:17.234Z,76.19
2023-04-03T01:34:45.466Z,75.74
2023-04-03T01:37:13.719Z,76.46
2023-04-03T01:39:41.725Z,75.35
2023-04-03T01:42:09.691Z,76.43
2023-04-03T01:44:41.418Z,75.32
2023-04-03T01:47:10.031Z,75.86
2023-04-03T01:49:41.724Z,75.81
2023-04-03T01:52:09.702Z,75.16
2023-04-03T01:54:39.151Z,76.20
2023-04-03T01:57:07.370Z,76.34
2023-04-03T01:59:36.051Z,76.30
2023-04-03T02:02:04.290Z,76.27
2023-04-03T02:04:32.340Z,75.61
2023-04-03T02:07:01.781Z,76.07
2023-04-03T02:09:29.694Z,76.90
2023-04-03T02:11:57.716Z,75.85
2023-04-03T02:14:25.884Z,75.35
2023-04-03T02:16:53.864Z,75.57
2023-04-03T02:19:24.282Z,75.60
2023-04-03T02:21:52.299Z,76.54
2023-04-03T02:24:21.766Z,76.62
2023-04-03T02:26:49.758Z,75.52
2023-04-03T02:29:18.361Z,76.48
2023-04-03T02:31:46.503Z,76.95
2023-04-03T02:34:14.587Z,76.09
2023-04-03T02:36:42.875Z,75.65
2023-04-03T02:39:12.951Z,75.81
2023-04-03T02:41:42.360Z,75.52
2023-04-03T02:44:15.643Z,75.86
2023-04-03T02:46:43.876Z,75.59
2023-04-03T02:49:12.426Z,75.80
2023-04-03T02:51:40.510Z,75.33
2023-04-03T02:54:08.933Z,75.15
2023-04-03T02:56:39.986Z,74.88
2023-04-03T02:59:09.506Z,75.30
2023-04-03T03:01:39.934Z,73.67
2023-04-03T03:04:07.971Z,74.70
2023-04-03T03:06:36.106Z,74.82
2023-04-03T03:09:06.664Z,73.39
2023-04-03T03:11:34.660Z,74.29
2023-04-03T03:14:04.285Z,73.05
2023-04-03T03:16:34.024Z,73.84
2023-04-03T03:19:01.970Z,73.71
2023-04-03T03:21:30.312Z,73.33
2023-04-03T03:23:58.438Z,72.91
2023-04-03T03:26:26.630Z,71.99
2023-04-03T03:28:54.623Z,72.79
2023-04-03T03:31:22.924Z,72.48
2023-04-03T03:33:52.333Z,72.13
2023-04-03T03:36:20.723Z,72.74
2023-04-03T03:38:49.411Z,72.36
2023-04-03T03:41:17.434Z,72.28
2023-04-03T03:43:46.643Z,72.41
2023-04-03T03:46:16.436Z,71.79
2023-04-03T03:48:44.373Z,72.33
2023-04-03T03:51:14.063Z,72.36
2023-04-03T03:53:42.188Z,72.23
2023-04-03T03:56:15.008Z,72.01
2023-04-03T03:58:44.052Z,71.83
2023-04-03T04:01:12.054Z,71.88
2023-04-03T04:03:44.709Z,72.35
2023-04-03T04:06:17.778Z,71.83
2023-04-03T04:08:45.957Z,72.58
2023-04-03T04:11:15.638Z,72.49
2023-04-03T04:13:45.027Z,72.45
2023-04-03T04:16:15.249Z,71.97
2023-04-03T04:18:43.306Z,71.44
2023-04-03T04:21:12.027Z,72.45
2023-04-03T04:23:42.424Z,71.57
2023-04-03T04:26:10.502Z,72.05
2023-04-03T04:28:40.886Z,71.95
2023-04-03T04:31:09.307Z,72.00
2023-04-03T04:33:38.024Z,71.74
2023-04-03T04:36:08.107Z,72.38
2023-04-03T04:38:37.361Z,72.63
2023-04-03T04:41:06.822Z,71.79
2023-04-03T04:43:35.697Z,72.33
2023-04-03T04:46:05.533Z,71.43
2023-04-03T04:48:38.002Z,72.14
2023-04-03T04:51:07.165Z,71.73
2023-04-03T04:53:37.326Z,72.23
2023-04-03T04:56:07.941Z,71.38
2023-04-03T04:58:38.760Z,70.92
2023-04-03T05:01:09.122Z,70.45
2023-04-03T05:03:42.846Z,70.56
2023-04-03T05:06:11.186Z,70.43
2023-04-03T05:08:39.873Z,70.39
2023-04-03T05:11:10.329Z,69.23
2023-04-03T05:13:39.742Z,70.26
2023-04-03T05:16:08.249Z,69.29
2023-04-03T05:18:37.044Z,69.13
2023-04-03T05:21:10.054Z,70.05
2023-04-03T05:23:38.380Z,68.12
2023-04-03T05:26:06.791Z,65.23
2023-04-03T05:28:36.612Z,65.11
2023-04-03T05:31:05.091Z,64.60
2023-04-03T05:33:37.131Z,64.64
2023-04-03T05:36:08.360Z,65.10
2023-04-03T05:38:42.224Z,64.70
2023-04-03T05:41:10.423Z,64.71
2023-04-03T05:43:40.428Z,64.46
2023-04-03T05:46:13.385Z,64.99
2023-04-03T05:48:44.243Z,63.83
2023-04-03T05:51:18.537Z,63.29
2023-04-03T05:53:49.502Z,63.47
2023-04-03T05:56:17.415Z,64.82
2023-04-03T05:58:47.259Z,64.35
2023-04-03T06:01:17.045Z,64.26
2023-04-03T06:03:45.780Z,64.40
2023-04-03T06:06:15.154Z,64.86
2023-04-03T06:08:44.701Z,65.11
2023-04-03T06:11:13.501Z,65.29
2023-04-03T06:13:41.402Z,65.31
2023-04-03T06:16:11.635Z,65.70
2023-04-03T06:18:42.259Z,65.50
2023-04-03T06:21:10.737Z,65.47
2023-04-03T06:23:38.777Z,66.27
2023-04-03T06:26:08.126Z,65.58
2023-04-03T06:28:36.564Z,66.50
2023-04-03T06:31:05.248Z,66.74
2023-04-03T06:33:34.592Z,65.74
2023-04-03T06:36:06.702Z,67.26
2023-04-03T06:38:35.370Z,66.99
2023-04-03T06:41:03.502Z,66.13
2023-04-03T06:43:33.919Z,66.66
2023-04-03T06:46:02.621Z,65.62
2023-04-03T06:48:30.656Z,65.03
2023-04-03T06:50:59.972Z,65.96
2023-04-03T06:53:27.984Z,65.44
2023-04-03T06:55:56.175Z,65.43
2023-04-03T06:58:24.115Z,65.80
2023-04-03T07:00:52.010Z,65.33
2023-04-03T07:03:19.985Z,64.82
2023-04-03T07:05:47.914Z,64.42
2023-04-03T07:08:17.437Z,64.79
2023-04-03T07:10:45.418Z,64.79
2023-04-03T07:13:13.391Z,64.48
2023-04-03T07:15:41.319Z,65.29
2023-04-03T07:18:09.437Z,64.63
2023-04-03T07:20:37.495Z,65.59
2023-04-03T07:23:05.693Z,65.69
2023-04-03T07:25:35.134Z,66.02
2023-04-03T07:28:03.151Z,65.97
2023-04-03T07:30:31.480Z,65.51
2023-04-03T07:32:59.507Z,65.49
2023-04-03T07:35:27.597Z,65.20
2023-04-03T07:37:56.314Z,65.66
2023-04-03T07:40:24.298Z,65.60
2023-04-03T07:42:53.702Z,65.03
2023-04-03T07:45:26.537Z,65.42
2023-04-03T07:47:56.646Z,66.05
2023-04-03T07:50:28.266Z,65.34
2023-04-03T07:53:02.242Z,65.85
2023-04-03T07:55:33.030Z,65.32
2023-04-03T07:58:04.319Z,64.87
2023-04-03T08:00:32.528Z,64.68
2023-04-03T08:03:00.713Z,64.57
2023-04-03T08:05:28.984Z,65.50
2023-04-03T08:07:57.132Z,64.04
2023-04-03T08:10:25.386Z,64.51
2023-04-03T08:12:53.372Z,64.41
2023-04-03T08:15:22.758Z,65.09
2023-04-03T08:17:51.630Z,64.54
2023-04-03T08:20:19.623Z,64.38
2023-04-03T08:22:47.592Z,62.56
2023-04-03T08:25:16.205Z,62.74
2023-04-03T08:27:44.072Z,62.70
2023-04-03T08:30:13.419Z,63.13
2023-04-03T08:32:44.186Z,63.40
2023-04-03T08:35:12.344Z,63.41
2023-04-03T08:37:41.426Z,62.90
2023-04-03T08:40:14.715Z,63.25
2023-04-03T08:42:53.197Z,63.70
2023-04-03T08:45:28.501Z,61.76
2023-04-03T08:48:06.804Z,63.37
2023-04-03T08:50:40.778Z,63.09
2023-04-03T08:53:16.266Z,60.80
2023-04-03T08:55:47.267Z,61.25
2023-04-03T08:58:18.287Z,61.50
2023-04-03T09:00:49.716Z,62.32
2023-04-03T09:03:21.057Z,62.24
2023-04-03T09:05:53.045Z,61.73
2023-04-03T09:08:26.980Z,61.83
2023-04-03T09:11:08.350Z,62.72
2023-04-03T09:13:44.171Z,62.64
2023-04-03T09:16:23.633Z,62.47
2023-04-03T09:18:59.372Z,61.43
2023-04-03T09:21:33.957Z,61.82
2023-04-03T09:24:04.878Z,61.08
2023-04-03T09:26:36.647Z,61.21
2023-04-03T09:29:08.437Z,60.04
2023-04-03T09:31:40.817Z,59.87
2023-04-03T09:34:21.699Z,60.03
2023-04-03T09:36:52.478Z,59.25
2023-04-03T09:39:22.785Z,58.02
2023-04-03T09:42:03.617Z,58.48
2023-04-03T09:44:33.759Z,59.49
2023-04-03T09:47:19.343Z,60.10
2023-04-03T09:49:48.701Z,60.56
2023-04-03T09:52:21.534Z,59.98
2023-04-03T09:54:49.495Z,60.81
2023-04-03T09:57:18.585Z,60.62
2023-04-03T09:59:49.836Z,61.13
2023-04-03T10:02:33.099Z,59.98
2023-04-03T10:07:36.860Z,59.11
2023-04-03T10:10:19.271Z,59.24
2023-04-03T10:12:47.394Z,58.40
2023-04-03T10:15:18.016Z,58.44
2023-04-03T10:17:56.376Z,57.68
2023-04-03T10:20:38.418Z,59.24
2023-04-03T10:23:18.871Z,58.57
2023-04-03T10:25:57.164Z,59.50
2023-04-03T10:28:33.029Z,58.75
2023-04-03T10:31:12.524Z,58.50
2023-04-03T10:33:55.583Z,59.51
2023-04-03T10:36:39.528Z,58.38
2023-04-03T10:39:20.991Z,59.87
2023-04-03T10:42:08.979Z,59.36
2023-04-03T10:44:58.854Z,58.35
2023-04-03T10:47:35.501Z,58.79
2023-04-03T10:50:22.217Z,58.45
2023-04-03T10:52:59.616Z,56.94
2023-04-03T10:55:37.926Z,58.03
2023-04-03T10:58:07.340Z,57.08
2023-04-03T11:00:41.273Z,57.50
2023-04-03T11:03:15.972Z,57.71
2023-04-03T11:05:46.854Z,57.16
2023-04-03T11:08:27.418Z,56.79
2023-04-03T11:11:00.425Z,56.64
2023-04-03T11:13:35.423Z,56.62
2023-04-03T11:16:06.630Z,57.41
2023-04-03T11:18:41.668Z,57.80
2023-04-03T11:21:15.115Z,57.75
2023-04-03T11:23:49.372Z,57.83
2023-04-03T11:26:22.062Z,59.87
2023-04-03T11:28:56.337Z,58.79
2023-04-03T11:31:41.508Z,58.02
2023-04-03T11:34:23.854Z,57.86
2023-04-03T11:36:56.814Z,57.33
2023-04-03T11:39:30.751Z,57.03
2023-04-03T11:42:16.771Z,57.21
2023-04-03T11:44:45.263Z,56.34
2023-04-03T11:47:34.677Z,56.77
2023-04-03T11:50:03.929Z,55.74
2023-04-03T11:53:01.031Z,54.47
2023-04-03T11:56:02.396Z,54.32
2023-04-03T11:58:33.503Z,54.10
2023-04-03T12:01:10.608Z,53.73
2023-04-03T12:04:09.375Z,54.30
2023-04-03T12:07:14.441Z,54.07
2023-04-03T12:10:03.733Z,53.80
2023-04-03T12:12:42.760Z,54.99
2023-04-03T12:15:52.294Z,53.57
2023-04-03T12:18:58.089Z,54.91
2023-04-03T12:22:05.030Z,53.40
2023-04-03T12:24:34.354Z,54.26
2023-04-03T12:27:25.715Z,52.81
2023-04-03T12:30:02.315Z,53.14
2023-04-03T12:33:11.751Z,53.10
2023-04-03T12:35:50.571Z,52.07
2023-04-03T12:38:50.650Z,52.74
2023-04-03T12:41:27.060Z,52.85
2023-04-03T12:44:25.410Z,52.77
2023-04-03T12:46:56.157Z,52.88
2023-04-03T12:49:37.353Z,51.23
2023-04-03T12:52:08.139Z,51.30
2023-04-03T12:54:38.404Z,50.69
2023-04-03T12:57:20.253Z,51.52
2023-04-03T12:59:48.285Z,51.80
2023-04-03T13:02:27.382Z,53.16
2023-04-03T13:04:58.859Z,52.03
2023-04-03T13:07:32.706Z,51.13
2023-04-03T13:10:03.062Z,51.25
2023-04-03T13:12:32.358Z,51.29
2023-04-03T13:15:02.376Z,52.41
2023-04-03T13:17:33.053Z,51.29
2023-04-03T13:20:13.869Z,51.92
2023-04-03T13:22:52.141Z,52.12
2023-04-03T13:25:22.765Z,51.08
2023-04-03T13:27:53.878Z,51.39
2023-04-03T13:30:30.398Z,51.79
2023-04-03T13:33:02.728Z,51.24
2023-04-03T13:35:38.022Z,50.95
2023-04-03T13:38:23.481Z,53.81
2023-04-03T13:40:53.039Z,49.80
2023-04-03T13:43:22.908Z,48.83
2023-04-03T13:46:06.117Z,49.03
2023-04-03T13:48:41.529Z,48.28
2023-04-03T13:51:20.985Z,48.24
2023-04-03T13:53:51.709Z,49.01
2023-04-03T13:56:24.767Z,50.11
2023-04-03T13:59:01.955Z,47.77
2023-04-03T14:01:45.544Z,47.55
2023-04-03T14:04:19.580Z,48.22
2023-04-03T14:06:48.526Z,49.47
2023-04-03T14:09:18.351Z,48.09
2023-04-03T14:11:47.268Z,48.32
2023-04-03T14:14:19.219Z,47.76
2023-04-03T14:16:49.974Z,48.83
2023-04-03T14:19:23.334Z,46.91
2023-04-03T14:21:51.880Z,46.96
2023-04-03T14:24:20.195Z,46.99
2023-04-03T14:26:48.948Z,47.73
2023-04-03T14:29:17.719Z,48.05
2023-04-03T14:31:47.471Z,47.44
2023-04-03T14:34:15.953Z,46.12
2023-04-03T14:36:47.187Z,46.49
2023-04-03T14:39:19.689Z,46.47
2023-04-03T14:41:48.552Z,46.94
2023-04-03T14:44:17.390Z,47.79
2023-04-03T14:46:56.363Z,47.75
2023-04-03T14:49:27.536Z,47.73
2023-04-03T14:51:57.038Z,47.23
2023-04-03T14:54:28.983Z,47.71
2023-04-03T14:56:58.924Z,47.60
2023-04-03T14:59:27.394Z,48.70
2023-04-03T15:01:55.490Z,47.84
2023-04-03T15:04:23.576Z,48.46
2023-04-03T15:06:53.086Z,47.95
2023-04-03T15:09:24.896Z,48.24
2023-04-03T15:11:54.278Z,48.29
2023-04-03T15:14:35.533Z,47.28
2023-04-03T15:17:06.284Z,46.97
2023-04-03T15:19:38.954Z,46.33
2023-04-03T15:22:07.072Z,44.91
2023-04-03T15:24:36.277Z,45.83
2023-04-03T15:27:04.383Z,46.72
2023-04-03T15:29:32.307Z,46.23
2023-04-03T15:32:00.125Z,45.82
2023-04-03T15:34:28.147Z,45.33
2023-04-03T15:36:56.212Z,45.19
2023-04-03T15:39:24.935Z,45.50
2023-04-03T15:41:54.846Z,45.33
2023-04-03T15:44:23.634Z,45.83
2023-04-03T15:46:52.193Z,45.60
2023-04-03T15:49:20.926Z,46.00
2023-04-03T15:51:49.027Z,46.38
2023-04-03T15:54:17.727Z,46.27
2023-04-03T15:56:46.251Z,46.89
2023-04-03T15:59:15.569Z,45.73
2023-04-03T16:01:44.600Z,45.48
2023-04-03T16:04:14.236Z,44.60
2023-04-03T16:06:44.228Z,45.46
2023-04-03T16:09:12.750Z,44.63
2023-04-03T16:11:41.167Z,44.47
2023-04-03T16:14:09.580Z,45.35
2023-04-03T16:16:39.678Z,43.52
2023-04-03T16:19:07.795Z,44.86
2023-04-03T16:21:35.877Z,43.46
2023-04-03T16:24:05.000Z,44.55
2023-04-03T16:26:33.549Z,45.11
2023-04-03T16:29:01.474Z,45.00
2023-04-03T16:31:30.384Z,45.04
2023-04-03T16:34:00.285Z,45.47
2023-04-03T16:36:28.328Z,45.33
2023-04-03T16:38:56.233Z,46.22
2023-04-03T16:41:24.169Z,45.68
2023-04-03T16:43:52.223Z,44.57
2023-04-03T16:46:20.405Z,44.89
2023-04-03T16:48:48.707Z,44.84
2023-04-03T16:51:17.990Z,44.68
2023-04-03T16:53:45.884Z,45.04
2023-04-03T16:56:13.754Z,45.79
2023-04-03T16:58:41.807Z,45.06
2023-04-03T17:01:14.730Z,44.45
2023-04-03T17:03:42.867Z,44.86
2023-04-03T17:06:16.919Z,44.84
2023-04-03T17:08:47.600Z,44.81
2023-04-03T17:11:28.029Z,46.01
2023-04-03T17:13:56.031Z,46.10
2023-04-03T17:16:25.263Z,44.35
2023-04-03T17:18:54.236Z,44.40
2023-04-03T17:21:22.842Z,45.21
2023-04-03T17:23:58.427Z,44.65
2023-04-03T17:26:27.602Z,45.58
2023-04-03T17:28:55.646Z,45.06
2023-04-03T17:31:24.247Z,46.14
2023-04-03T17:33:52.269Z,46.27
2023-04-03T17:36:20.092Z,46.46
2023-04-03T17:38:48.790Z,46.18
2023-04-03T17:41:18.057Z,46.41
2023-04-03T17:43:46.040Z,46.42
2023-04-03T17:46:13.948Z,47.07
2023-04-03T17:48:42.658Z,47.55
2023-04-03T17:51:12.488Z,47.41
2023-04-03T17:53:41.104Z,48.13
2023-04-03T17:56:10.870Z,47.35
2023-04-03T17:58:40.143Z,47.31
2023-04-03T18:01:13.521Z,47.17
2023-04-03T18:03:42.251Z,47.47
2023-04-03T18:06:12.589Z,47.39
2023-04-03T18:08:44.340Z,47.27
2023-04-03T18:11:12.628Z,48.18
2023-04-03T18:13:42.284Z,47.83
2023-04-03T18:16:12.129Z,48.00
2023-04-03T18:18:41.080Z,47.96
2023-04-03T18:21:11.801Z,47.52
2023-04-03T18:23:42.583Z,47.43
2023-04-03T18:26:12.278Z,47.60
2023-04-03T18:28:43.971Z,48.29
2023-04-03T18:31:16.235Z,48.37
2023-04-03T18:33:44.310Z,48.07
2023-04-03T18:36:12.970Z,48.22
2023-04-03T18:38:40.954Z,48.76
2023-04-03T18:41:10.278Z,48.79
2023-04-03T18:43:38.314Z,48.55
2023-04-03T18:46:08.163Z,48.30
2023-04-03T18:48:37.400Z,49.13
2023-04-03T18:51:06.053Z,48.72
2023-04-03T18:53:34.023Z,48.91
2023-04-03T18:56:02.080Z,49.69
2023-04-03T18:58:29.921Z,49.12
2023-04-03T19:00:57.962Z,49.05
2023-04-03T19:03:27.900Z,49.30
2023-04-03T19:05:55.946Z,48.98
2023-04-03T19:08:24.496Z,48.92
2023-04-03T19:10:52.549Z,49.22
2023-04-03T19:13:20.506Z,48.60
2023-04-03T19:15:48.706Z,49.52
2023-04-03T19:18:16.592Z,49.36
2023-04-03T19:20:45.950Z,48.91
2023-04-03T19:23:14.097Z,48.74
2023-04-03T19:25:42.830Z,49.34
2023-04-03T19:28:13.125Z,48.75
2023-04-03T19:30:42.987Z,49.21
2023-04-03T19:33:12.854Z,49.15
2023-04-03T19:35:42.049Z,49.60
2023-04-03T19:38:12.348Z,49.28
2023-04-03T19:40:43.787Z,49.21
2023-04-03T19:43:13.447Z,49.25
2023-04-03T19:45:44.074Z,48.68
2023-04-03T19:48:12.815Z,49.40
2023-04-03T19:50:41.885Z,49.07
2023-04-03T19:53:14.659Z,49.31
2023-04-03T19:55:43.531Z,48.62
2023-04-03T19:58:11.748Z,49.20
2023-04-03T20:00:40.267Z,49.29
2023-04-03T20:03:09.073Z,49.55
2023-04-03T20:05:37.471Z,48.97
2023-04-03T20:08:05.937Z,49.27
2023-04-03T20:10:40.515Z,49.39
2023-04-03T20:13:10.822Z,49.31
2023-04-03T20:15:41.495Z,49.26
2023-04-03T20:18:10.964Z,49.93
2023-04-03T20:20:42.160Z,49.84
2023-04-03T20:23:11.747Z,50.14
2023-04-03T20:25:57.530Z,50.23
2023-04-03T20:28:30.064Z,49.81
2023-04-03T20:30:59.019Z,49.79
2023-04-03T20:33:28.158Z,49.62
2023-04-03T20:35:57.601Z,50.68
2023-04-03T20:38:26.589Z,50.89
2023-04-03T20:40:56.664Z,50.94
2023-04-03T20:43:25.561Z,51.16
2023-04-03T20:45:54.075Z,50.85
2023-04-03T20:48:22.558Z,50.90
2023-04-03T20:50:51.199Z,51.35
2023-04-03T20:53:20.799Z,50.55
2023-04-03T20:56:00.648Z,51.05
2023-04-03T20:58:29.785Z,51.89
2023-04-03T21:00:57.892Z,52.61
2023-04-03T21:03:27.381Z,52.28
2023-04-03T21:05:59.765Z,52.06
2023-04-03T21:09:06.679Z,52.54
2023-04-03T21:12:12.162Z,52.60
2023-04-03T21:15:17.512Z,52.88
2023-04-03T21:18:32.464Z,53.21
2023-04-03T21:21:02.633Z,52.87
2023-04-03T21:23:31.584Z,53.47
2023-04-03T21:26:00.839Z,53.34
2023-04-03T21:28:28.771Z,53.44
2023-04-03T21:30:56.736Z,53.46
2023-04-03T21:33:26.117Z,53.44
2023-04-03T21:35:58.002Z,54.04
2023-04-03T21:38:27.303Z,53.57
2023-04-03T21:40:57.790Z,54.75
2023-04-03T21:43:26.031Z,54.70
2023-04-03T21:45:55.111Z,54.61
2023-04-03T21:48:23.339Z,54.35
2023-04-03T21:50:53.625Z,55.46
2023-04-03T21:53:22.528Z,54.26
2023-04-03T21:55:54.304Z,54.98
2023-04-03T21:58:22.177Z,55.47
2023-04-03T22:00:50.061Z,55.46
2023-04-03T22:03:23.505Z,55.70
2023-04-03T22:05:53.448Z,55.36
2023-04-03T22:08:21.641Z,55.49
2023-04-03T22:10:49.495Z,55.95
2023-04-03T22:13:17.299Z,55.92
2023-04-03T22:15:48.272Z,56.60
2023-04-03T22:18:16.240Z,56.51
2023-04-03T22:20:44.452Z,56.61
2023-04-03T22:23:13.684Z,56.70
2023-04-03T22:25:41.514Z,56.90
2023-04-03T22:28:09.323Z,56.42
2023-04-03T22:30:37.856Z,56.61
2023-04-03T22:33:06.117Z,56.18
2023-04-03T22:35:34.343Z,57.11
2023-04-03T22:38:02.620Z,57.30
2023-04-03T22:40:33.606Z,57.18
2023-04-03T22:43:02.061Z,57.37
2023-04-03T22:45:29.921Z,57.27
2023-04-03T22:47:58.927Z,57.27
2023-04-03T22:50:28.064Z,57.33
2023-04-03T22:52:55.952Z,56.83
2023-04-03T22:55:24.963Z,57.68
2023-04-03T22:57:54.163Z,57.86
2023-04-03T23:00:22.154Z,57.51
2023-04-03T23:02:50.035Z,58.05
2023-04-03T23:05:18.219Z,58.21
2023-04-03T23:07:46.073Z,58.29
2023-04-03T23:10:14.300Z,58.16
2023-04-03T23:12:42.352Z,58.58
2023-04-03T23:15:14.451Z,58.54
2023-04-03T23:17:42.431Z,58.81
2023-04-03T23:20:11.631Z,59.01
2023-04-03T23:22:39.432Z,59.24
2023-04-03T23:25:08.221Z,59.69
2023-04-03T23:27:36.568Z,59.43
2023-04-03T23:30:04.977Z,58.81
2023-04-03T23:32:34.204Z,59.07
2023-04-03T23:35:02.480Z,59.71
2023-04-03T23:37:30.300Z,60.00
2023-04-03T23:39:58.100Z,59.87
2023-04-03T23:42:26.165Z,59.99
2023-04-03T23:44:54.000Z,59.83
2023-04-03T23:47:22.253Z,60.07
2023-04-03T23:49:51.595Z,60.90
2023-04-03T23:52:19.647Z,59.90
2023-04-03T23:54:49.380Z,60.69
2023-04-03T23:57:17.616Z,60.44
2023-04-03T23:59:45.473Z,60.77
